Time;durP1;ratioP1;P1;durP2;ratioP2;P2;SDS_P1;SDS_P2;PMS_P1;PMS_P2;Temp;Humidity;BMP_temperature;BMP_pressure;BME280_temperature;BME280_humidity;BME280_pressure;Samples;Min_cycle;Max_cycle;Signal;HPM_P1;HPM_P2
2023/08/07 00:00:45;;;;;;;13.75;6.60;;;;;;;-146.25;100.00;52177.59;2078648;28;36535;-72
2023/08/07 00:01:47;;;;;;;10.95;8.05;;;;;;;-146.25;100.00;52187.75;2080494;28;20847;-72
2023/08/07 00:02:49;;;;;;;13.18;7.80;;;;;;;-146.25;100.00;52206.00;2079229;28;36763;-70
2023/08/07 00:03:51;;;;;;;15.15;8.20;;;;;;;-146.25;100.00;52161.38;2079609;28;33815;-71
2023/08/07 00:04:53;;;;;;;15.00;8.00;;;;;;;-146.25;100.00;52143.13;2080385;28;20902;-70
2023/08/07 00:05:55;;;;;;;10.88;7.78;;;;;;;-146.25;100.00;52199.91;2080351;28;36740;-71
2023/08/07 00:06:56;;;;;;;12.95;7.65;;;;;;;-146.25;100.00;52189.78;2079638;28;35413;-71
2023/08/07 00:07:58;;;;;;;11.32;7.43;;;;;;;-146.25;100.00;52197.88;2079887;28;34278;-71
2023/08/07 00:09:00;;;;;;;14.07;7.47;;;;;;;-146.25;100.00;52234.38;2079220;28;36648;-70
2023/08/07 00:10:03;;;;;;;12.75;7.20;;;;;;;-146.25;100.00;52173.56;2080571;28;20565;-71
2023/08/07 00:11:09;;;;;;;10.02;7.55;;;;;;;-146.25;100.00;52222.22;2079453;28;34107;-71
2023/08/07 00:12:10;;;;;;;11.40;7.32;;;;;;;-146.25;100.00;52179.63;2079014;28;34570;-71
2023/08/07 00:13:12;;;;;;;11.38;7.95;;;;;;;-146.25;100.00;52193.81;2094052;22;20183;-67
2023/08/07 00:14:14;;;;;;;11.93;7.38;;;;;;;-146.25;100.00;52173.56;2082230;28;36000;-66
2023/08/07 00:15:16;;;;;;;11.85;7.20;;;;;;;-146.25;100.00;52203.97;2079300;28;35055;-66
2023/08/07 00:16:17;;;;;;;14.27;8.07;;;;;;;-146.25;100.00;52171.53;2079948;28;32054;-66
2023/08/07 00:17:19;;;;;;;12.77;6.78;;;;;;;-146.25;100.00;52191.81;2079307;28;35012;-64
2023/08/07 00:18:21;;;;;;;12.73;8.13;;;;;;;-146.25;100.00;52224.25;2080646;28;20942;-64
2023/08/07 00:19:25;;;;;;;15.23;6.90;;;;;;;-146.25;100.00;52212.06;2079527;28;37201;-66
2023/08/07 00:20:29;;;;;;;11.35;7.20;;;;;;;-146.25;100.00;52183.69;2079715;28;35933;-65
2023/08/07 00:21:31;;;;;;;12.45;7.10;;;;;;;-146.25;100.00;52212.06;2079285;28;33823;-64
2023/08/07 00:22:33;;;;;;;12.25;7.20;;;;;;;-146.25;100.00;52236.41;2079587;28;38496;-65
2023/08/07 00:23:35;;;;;;;10.38;6.30;;;;;;;-146.25;100.00;52238.44;2079975;28;20950;-65
2023/08/07 00:24:37;;;;;;;12.50;6.70;;;;;;;-146.25;100.00;52228.28;2079297;28;35687;-65
2023/08/07 00:25:38;;;;;;;8.50;7.50;;;;;;;-146.25;100.00;52212.06;2079845;28;37997;-65
2023/08/07 00:26:40;;;;;;;10.98;6.70;;;;;;;-146.25;100.00;52230.31;2081097;28;34050;-65
2023/08/07 00:27:42;;;;;;;15.45;7.50;;;;;;;-146.25;100.00;52181.66;2081327;28;36571;-64
2023/08/07 00:28:48;;;;;;;15.88;7.93;;;;;;;-146.25;100.00;52197.88;2080754;28;20898;-65
2023/08/07 00:29:50;;;;;;;11.05;7.22;;;;;;;-146.25;100.00;52161.38;2065432;28;20224;-66
2023/08/07 00:30:55;;;;;;;11.57;7.45;;;;;;;-146.25;100.00;52179.63;2072909;28;33002;-67
2023/08/07 00:31:57;;;;;;;11.32;7.55;;;;;;;-146.25;100.00;52220.19;2072450;28;23747;-67
2023/08/07 00:33:00;;;;;;;11.18;7.40;;;;;;;-146.25;100.00;52214.09;2073126;28;20026;-65
2023/08/07 00:34:05;;;;;;;13.15;7.35;;;;;;;-146.25;100.00;52222.22;2081669;28;20037;-64
2023/08/07 00:35:08;;;;;;;12.88;7.63;;;;;;;-146.25;100.00;52214.09;2081407;28;20176;-65
2023/08/07 00:36:12;;;;;;;11.80;7.78;;;;;;;-146.25;100.00;52218.16;2081105;28;26628;-65
2023/08/07 00:37:13;;;;;;;14.30;7.65;;;;;;;-146.25;100.00;52210.03;2080832;28;31418;-66
2023/08/07 00:38:15;;;;;;;12.00;7.57;;;;;;;-146.25;100.00;52201.94;2072467;28;20993;-66
2023/08/07 00:39:19;;;;;;;14.07;8.25;;;;;;;-146.25;100.00;52175.56;2080930;28;20088;-66
2023/08/07 00:40:21;;;;;;;10.98;7.18;;;;;;;-146.25;100.00;52173.56;2081179;28;20188;-66
2023/08/07 00:41:23;;;;;;;14.82;8.02;;;;;;;-146.25;100.00;52206.00;2081073;28;20077;-65
2023/08/07 00:42:25;;;;;;;11.70;7.43;;;;;;;-146.25;100.00;52173.56;2080147;28;22731;-66
2023/08/07 00:43:27;;;;;;;12.15;7.85;;;;;;;-146.25;100.00;52228.28;2080527;28;20042;-66
2023/08/07 00:44:28;;;;;;;10.60;7.43;;;;;;;-146.25;100.00;52191.81;2083432;28;31228;-66
2023/08/07 00:45:46;;;;;;;11.75;7.50;;;;;;;-146.25;100.00;52212.06;2081341;28;28859;-66
2023/08/07 00:46:48;;;;;;;12.00;8.02;;;;;;;-146.25;100.00;52193.81;2081053;28;20957;-66
2023/08/07 00:47:52;;;;;;;12.80;7.32;;;;;;;-146.25;100.00;52216.13;2080654;28;32106;-66
2023/08/07 00:48:54;;;;;;;14.68;7.45;;;;;;;-146.25;100.00;52177.59;2080394;28;28683;-66
2023/08/07 00:49:58;;;;;;;12.73;7.72;;;;;;;-146.25;100.00;52208.03;2072445;28;30547;-66
2023/08/07 00:51:01;;;;;;;12.13;7.38;;;;;;;-146.25;100.00;52195.84;2080980;28;20176;-66
2023/08/07 00:52:03;;;;;;;14.50;8.15;;;;;;;-146.25;100.00;52183.69;2081179;28;20438;-65
2023/08/07 00:53:06;;;;;;;12.35;8.18;;;;;;;-146.25;100.00;52201.94;2080040;28;30884;-66
2023/08/07 00:54:11;;;;;;;8.85;7.45;;;;;;;-146.25;100.00;52220.19;2072227;28;37546;-66
2023/08/07 00:55:13;;;;;;;11.80;7.82;;;;;;;-146.25;100.00;52199.91;2073257;28;28178;-66
2023/08/07 00:56:15;;;;;;;15.15;8.43;;;;;;;-146.25;100.00;52201.94;2080877;28;31159;-66
2023/08/07 00:57:17;;;;;;;11.32;7.55;;;;;;;-146.25;100.00;52175.56;2080512;28;29018;-64
2023/08/07 00:58:19;;;;;;;12.10;7.13;;;;;;;-146.25;100.00;52201.94;2080668;28;35512;-63
2023/08/07 00:59:23;;;;;;;14.85;8.00;;;;;;;-146.25;100.00;52230.31;2081156;28;24562;-63
2023/08/07 01:00:28;;;;;;;15.15;7.30;;;;;;;-146.25;100.00;52230.31;2088602;28;28551;-63
2023/08/07 01:01:30;;;;;;;12.10;7.93;;;;;;;-146.25;100.00;52163.41;2088756;28;20237;-64
2023/08/07 01:02:32;;;;;;;10.80;7.18;;;;;;;-146.25;100.00;52187.75;2080047;28;27007;-63
2023/08/07 01:03:35;;;;;;;15.20;7.97;;;;;;;-146.25;100.00;52218.16;2080605;28;20089;-63
2023/08/07 01:04:37;;;;;;;14.15;8.10;;;;;;;-146.25;100.00;52139.09;2072363;28;34414;-63
2023/08/07 01:05:39;;;;;;;15.55;7.85;;;;;;;-146.25;100.00;52185.72;2080323;28;28056;-63
2023/08/07 01:06:41;;;;;;;13.43;8.05;;;;;;;-146.25;100.00;52206.00;2080227;28;26051;-63
2023/08/07 01:07:43;;;;;;;10.35;7.60;;;;;;;-146.25;100.00;52169.50;2080437;28;27630;-63
2023/08/07 01:08:46;;;;;;;14.23;8.52;;;;;;;-146.25;100.00;52185.72;2088947;28;21024;-63
2023/08/07 01:09:47;;;;;;;15.02;7.95;;;;;;;-146.25;100.00;52197.88;2080538;28;20098;-63
2023/08/07 01:11:11;;;;;;;12.05;7.45;;;;;;;-146.25;100.00;52214.09;2080569;28;30245;-64
2023/08/07 01:12:30;;;;;;;9.68;7.38;;;;;;;-146.25;100.00;52212.06;2081101;28;20049;-63
2023/08/07 01:13:40;;;;;;;11.45;7.30;;;;;;;-146.25;100.00;52199.91;2085387;28;29356;-71
2023/08/07 01:14:46;;;;;;;11.90;7.40;;;;;;;-146.25;100.00;52189.78;2080304;28;35066;-75
2023/08/07 01:15:52;;;;;;;10.93;7.15;;;;;;;-146.25;100.00;52193.81;2082628;28;20889;-75
2023/08/07 01:17:03;;;;;;;12.90;7.30;;;;;;;-146.25;100.00;52201.94;2080854;28;20038;-75
2023/08/07 01:18:07;;;;;;;10.48;7.30;;;;;;;-146.25;100.00;52199.91;2073490;28;20062;-75
2023/08/07 01:19:26;;;;;;;10.38;6.53;;;;;;;-146.25;100.00;52216.13;2080520;28;33559;-77
2023/08/07 01:20:31;;;;;;;12.63;7.55;;;;;;;-146.25;100.00;52238.44;2072460;28;20046;-77
2023/08/07 01:21:36;;;;;;;11.35;6.97;;;;;;;-146.25;100.00;52206.00;2067253;28;20043;-76
2023/08/07 01:22:38;;;;;;;12.23;7.00;;;;;;;-146.25;100.00;52210.03;2073081;28;22955;-78
2023/08/07 01:23:40;;;;;;;8.40;6.57;;;;;;;-146.25;100.00;52206.00;2072935;28;20046;-78
2023/08/07 01:24:53;;;;;;;13.75;6.72;;;;;;;-146.25;100.00;52187.75;2081040;28;20196;-78
2023/08/07 01:25:55;;;;;;;10.25;6.60;;;;;;;-146.25;100.00;52212.06;2080389;28;20165;-78
2023/08/07 01:27:06;;;;;;;9.25;6.13;;;;;;;-146.25;100.00;52230.31;2072126;28;36229;-79
2023/08/07 01:28:22;;;;;;;12.15;6.75;;;;;;;-146.25;100.00;52195.84;2072409;28;20930;-78
2023/08/07 01:29:37;;;;;;;11.75;6.53;;;;;;;-146.25;100.00;52206.00;2074456;28;20053;-80
2023/08/07 01:30:49;;;;;;;16.20;6.72;;;;;;;-146.25;100.00;52189.78;2080235;28;32553;-79
2023/08/07 01:31:54;;;;;;;8.73;7.00;;;;;;;-146.25;100.00;52181.66;2066536;28;31645;-79
2023/08/07 01:32:57;;;;;;;10.18;6.60;;;;;;;-146.25;100.00;52218.16;2074796;28;30006;-81
2023/08/07 01:34:06;;;;;;;12.02;7.50;;;;;;;-146.25;100.00;52218.16;2080281;28;26077;-83
2023/08/07 01:35:11;;;;;;;9.25;6.40;;;;;;;-146.25;100.00;52222.22;2064944;28;35749;-71
2023/08/07 01:36:29;;;;;;;13.45;7.35;;;;;;;-146.25;100.00;52206.00;2065453;28;31243;-71
2023/08/07 01:37:36;;;;;;;11.55;6.85;;;;;;;-146.25;100.00;52197.88;2074703;28;24373;-73
2023/08/07 01:38:39;;;;;;;12.30;7.25;;;;;;;-146.25;100.00;52193.81;2081519;28;26010;-71
2023/08/07 01:39:42;;;;;;;7.85;6.32;;;;;;;-146.25;100.00;52220.19;2080850;28;27559;-72
2023/08/07 01:40:45;;;;;;;9.45;7.25;;;;;;;-146.25;100.00;52208.03;2080118;28;25277;-72
2023/08/07 01:41:50;;;;;;;10.90;6.90;;;;;;;-146.25;100.00;52193.81;2080764;28;31132;-73
2023/08/07 01:42:52;;;;;;;9.02;7.05;;;;;;;-146.25;100.00;52201.94;2071677;28;26567;-72
2023/08/07 01:43:54;;;;;;;13.10;7.28;;;;;;;-146.25;100.00;52183.69;2072405;28;26842;-70
2023/08/07 01:44:56;;;;;;;13.88;7.10;;;;;;;-146.25;100.00;52201.94;2072583;28;20042;-70
2023/08/07 01:45:59;;;;;;;9.63;7.18;;;;;;;-146.25;100.00;52191.81;2080721;28;24731;-70
2023/08/07 01:47:02;;;;;;;10.63;7.43;;;;;;;-146.25;100.00;52187.75;2080070;28;20156;-71
2023/08/07 01:48:06;;;;;;;10.98;7.70;;;;;;;-146.25;100.00;52201.94;2080679;28;24876;-73
2023/08/07 01:49:08;;;;;;;10.52;7.93;;;;;;;-146.25;100.00;52199.91;2080444;28;30947;-71
2023/08/07 01:50:10;;;;;;;12.13;7.45;;;;;;;-146.25;100.00;52193.81;2081030;28;21698;-72
2023/08/07 01:51:12;;;;;;;13.65;8.43;;;;;;;-146.25;100.00;52222.22;2072191;28;20042;-70
2023/08/07 01:52:15;;;;;;;12.00;7.75;;;;;;;-146.25;100.00;52201.94;2072526;28;29469;-72
2023/08/07 01:53:17;;;;;;;14.68;7.72;;;;;;;-146.25;100.00;52210.03;2081080;28;20169;-70
2023/08/07 01:54:18;;;;;;;16.40;7.55;;;;;;;-146.25;100.00;52224.25;2080955;28;29430;-70
2023/08/07 01:55:22;;;;;;;12.63;7.85;;;;;;;-146.25;100.00;52199.91;2087786;28;35198;-70
2023/08/07 01:56:27;;;;;;;16.98;8.40;;;;;;;-146.25;100.00;52181.66;2089320;28;20045;-70
2023/08/07 01:57:30;;;;;;;11.95;7.78;;;;;;;-146.25;100.00;52193.81;2080390;28;20803;-70
2023/08/07 01:58:32;;;;;;;15.73;8.52;;;;;;;-146.25;100.00;52197.88;2072110;28;20519;-70
2023/08/07 01:59:33;;;;;;;13.43;8.25;;;;;;;-146.25;100.00;52214.09;2080343;28;20168;-70
2023/08/07 02:00:35;;;;;;;10.60;8.27;;;;;;;-146.25;100.00;52232.34;2081096;28;20255;-70
2023/08/07 02:01:37;;;;;;;18.23;9.05;;;;;;;-146.25;100.00;52179.63;2079511;28;40005;-70
2023/08/07 02:02:39;;;;;;;17.27;9.13;;;;;;;-146.25;100.00;52212.06;2080578;28;20049;-70
2023/08/07 02:03:41;;;;;;;13.55;8.75;;;;;;;-146.25;100.00;52173.56;2079681;28;30000;-70
2023/08/07 02:04:43;;;;;;;16.90;9.20;;;;;;;-146.25;100.00;52212.06;2080659;28;20922;-70
2023/08/07 02:05:48;;;;;;;13.55;8.82;;;;;;;-146.25;100.00;52173.56;2072321;28;20081;-70
2023/08/07 02:06:50;;;;;;;12.98;9.32;;;;;;;-146.25;100.00;52210.03;2080776;28;20253;-70
2023/08/07 02:07:56;;;;;;;15.70;8.65;;;;;;;-146.25;100.00;52216.13;2080319;28;20167;-69
2023/08/07 02:08:58;;;;;;;17.95;9.52;;;;;;;-146.25;100.00;52201.94;2080367;28;28215;-70
2023/08/07 02:10:00;;;;;;;14.73;8.50;;;;;;;-146.25;100.00;52218.16;2063713;28;26552;-77
2023/08/07 02:11:02;;;;;;;14.05;9.18;;;;;;;-146.25;100.00;52218.16;2072375;28;20038;-78
2023/08/07 02:12:08;;;;;;;15.82;9.57;;;;;;;-146.25;100.00;52210.03;2080653;28;23588;-75
2023/08/07 02:13:10;;;;;;;17.50;9.57;;;;;;;-146.25;100.00;52195.84;2079737;28;29386;-74
2023/08/07 02:14:11;;;;;;;13.60;9.45;;;;;;;-146.25;100.00;52210.03;2079717;28;20045;-74
2023/08/07 02:15:13;;;;;;;15.65;9.45;;;;;;;-146.25;100.00;52197.88;2064144;28;20133;-73
2023/08/07 02:16:15;;;;;;;13.32;8.90;;;;;;;-146.25;100.00;52212.06;2063657;28;20050;-74
2023/08/07 02:17:17;;;;;;;14.68;9.15;;;;;;;-146.25;100.00;52171.53;2055787;28;20134;-73
2023/08/07 02:18:19;;;;;;;11.10;8.82;;;;;;;-146.25;100.00;52203.97;2063622;28;20952;-74
2023/08/07 02:19:20;;;;;;;15.80;8.95;;;;;;;-146.25;100.00;52197.88;2071635;28;30876;-73
2023/08/07 02:20:22;;;;;;;14.20;9.20;;;;;;;-146.25;100.00;52214.09;2063415;28;28893;-70
2023/08/07 02:21:24;;;;;;;13.73;8.90;;;;;;;-146.25;100.00;52236.41;2071905;28;28801;-69
2023/08/07 02:22:26;;;;;;;15.27;9.52;;;;;;;-146.25;100.00;52206.00;2079912;28;26063;-71
2023/08/07 02:23:28;;;;;;;15.88;9.52;;;;;;;-146.25;100.00;52189.78;2080112;28;26261;-72
2023/08/07 02:24:30;;;;;;;17.67;9.98;;;;;;;-146.25;100.00;52230.31;2071689;28;26018;-71
2023/08/07 02:25:32;;;;;;;15.85;9.13;;;;;;;-146.25;100.00;52195.84;2071677;28;24503;-71
2023/08/07 02:26:34;;;;;;;16.23;9.57;;;;;;;-146.25;100.00;52212.06;2079781;28;29431;-72
2023/08/07 02:27:35;;;;;;;13.45;9.40;;;;;;;-146.25;100.00;52181.66;2080297;28;28591;-71
2023/08/07 02:28:39;;;;;;;14.27;8.68;;;;;;;-146.25;100.00;52226.25;2079654;28;20053;-70
2023/08/07 02:29:41;;;;;;;15.65;8.98;;;;;;;-146.25;100.00;52228.28;2080189;28;27639;-70
2023/08/07 02:30:48;;;;;;;13.98;8.85;;;;;;;-146.25;100.00;52234.38;2072359;28;30417;-70
2023/08/07 02:31:50;;;;;;;14.07;8.85;;;;;;;-146.25;100.00;52218.16;2072833;28;20035;-70
2023/08/07 02:32:52;;;;;;;11.70;8.32;;;;;;;-146.25;100.00;52222.22;2072463;28;20041;-69
2023/08/07 02:33:53;;;;;;;12.30;8.73;;;;;;;-146.25;100.00;52206.00;2080417;28;20077;-70
2023/08/07 02:34:55;;;;;;;14.25;8.93;;;;;;;-146.25;100.00;52195.84;2080076;28;20585;-69
2023/08/07 02:36:00;;;;;;;13.25;8.50;;;;;;;-146.25;100.00;52228.28;2080508;28;20042;-70
2023/08/07 02:37:05;;;;;;;12.40;7.97;;;;;;;-146.25;100.00;52167.47;2079053;28;28499;-69
2023/08/07 02:38:09;;;;;;;13.32;7.72;;;;;;;-146.25;100.00;52272.91;2072454;28;23369;-69
2023/08/07 02:39:14;;;;;;;11.32;7.97;;;;;;;-146.25;100.00;52206.00;2071981;28;28368;-68
2023/08/07 02:40:17;;;;;;;11.32;7.85;;;;;;;-146.25;100.00;52206.00;2080162;28;27265;-69
2023/08/07 02:41:19;;;;;;;13.52;8.20;;;;;;;-146.25;100.00;52199.91;2079663;28;27589;-69
2023/08/07 02:42:21;;;;;;;11.20;8.18;;;;;;;-146.25;100.00;52208.03;2072541;28;26345;-70
2023/08/07 02:43:22;;;;;;;10.98;7.68;;;;;;;-146.25;100.00;52197.88;2072038;28;30911;-69
2023/08/07 02:44:26;;;;;;;10.43;7.65;;;;;;;-146.25;100.00;52208.03;2079950;28;26022;-69
2023/08/07 02:45:28;;;;;;;11.73;8.55;;;;;;;-146.25;100.00;52218.16;2079875;28;20907;-70
2023/08/07 02:46:30;;;;;;;10.27;8.35;;;;;;;-146.25;100.00;52206.00;2075457;28;29950;-70
2023/08/07 02:47:34;;;;;;;12.25;8.13;;;;;;;-146.25;100.00;52197.88;2080049;28;20084;-69
2023/08/07 02:48:36;;;;;;;11.70;7.32;;;;;;;-146.25;100.00;52236.41;2072663;28;20039;-69
2023/08/07 02:49:37;;;;;;;9.27;7.90;;;;;;;-146.25;100.00;52252.63;2071555;28;27519;-70
2023/08/07 02:50:44;;;;;;;10.38;7.63;;;;;;;-146.25;100.00;52187.75;2080592;28;20088;-70
2023/08/07 02:51:46;;;;;;;8.85;7.25;;;;;;;-146.25;100.00;52185.72;2088342;28;20096;-71
2023/08/07 02:52:48;;;;;;;13.10;8.20;;;;;;;-146.25;100.00;52214.09;2080425;28;27695;-73
2023/08/07 02:53:50;;;;;;;10.60;8.23;;;;;;;-146.25;100.00;52197.88;2080552;28;21052;-75
2023/08/07 02:54:52;;;;;;;15.02;7.75;;;;;;;-146.25;100.00;52218.16;2081015;28;20050;-75
2023/08/07 02:55:54;;;;;;;10.95;7.45;;;;;;;-146.25;100.00;52218.16;2080358;28;27555;-73
2023/08/07 02:56:57;;;;;;;12.95;7.40;;;;;;;-146.25;100.00;52238.44;2079762;28;20037;-74
2023/08/07 02:57:59;;;;;;;12.50;8.27;;;;;;;-146.25;100.00;52193.81;2071678;28;20256;-73
2023/08/07 02:59:01;;;;;;;13.10;7.97;;;;;;;-146.25;100.00;52240.47;2079213;28;29269;-73
2023/08/07 03:00:04;;;;;;;11.43;8.50;;;;;;;-146.25;100.00;52230.31;2079774;28;20029;-72
2023/08/07 03:01:06;;;;;;;13.25;8.55;;;;;;;-146.25;100.00;52230.31;2079350;28;32312;-73
2023/08/07 03:02:08;;;;;;;15.27;8.80;;;;;;;-146.25;100.00;52210.03;2080027;28;20774;-72
2023/08/07 03:03:12;;;;;;;19.98;8.55;;;;;;;-146.25;100.00;52214.09;2088508;28;20048;-71
2023/08/07 03:04:13;;;;;;;14.18;8.05;;;;;;;-146.25;100.00;52252.63;2079827;28;20958;-71
2023/08/07 03:05:15;;;;;;;11.90;7.57;;;;;;;-146.25;100.00;52210.03;2080274;28;20034;-71
2023/08/07 03:06:17;;;;;;;12.25;8.27;;;;;;;-146.25;100.00;52238.44;2079187;28;36646;-71
2023/08/07 03:07:19;;;;;;;12.02;8.15;;;;;;;-146.25;100.00;52232.34;2080537;28;20093;-71
2023/08/07 03:08:21;;;;;;;10.52;7.93;;;;;;;-146.25;100.00;52173.56;2080573;28;20135;-71
2023/08/07 03:09:23;;;;;;;15.43;8.30;;;;;;;-146.25;100.00;52230.31;2079911;28;28840;-71
2023/08/07 03:10:25;;;;;;;14.32;8.10;;;;;;;-146.25;100.00;52230.31;2079878;28;20135;-71
2023/08/07 03:11:29;;;;;;;12.95;8.32;;;;;;;-146.25;100.00;52238.44;2071602;28;21049;-71
2023/08/07 03:12:32;;;;;;;13.50;8.52;;;;;;;-146.25;100.00;52218.16;2072482;28;20077;-70
2023/08/07 03:13:33;;;;;;;16.75;8.98;;;;;;;-146.25;100.00;52201.94;2087875;28;28934;-71
2023/08/07 03:14:35;;;;;;;14.80;7.93;;;;;;;-146.25;100.00;52228.28;2079160;28;25661;-70
2023/08/07 03:15:37;;;;;;;13.82;8.45;;;;;;;-146.25;100.00;52222.22;2079991;28;28832;-70
2023/08/07 03:16:39;;;;;;;16.30;7.95;;;;;;;-146.25;100.00;52226.25;2087924;28;20045;-70
2023/08/07 03:17:41;;;;;;;12.25;8.00;;;;;;;-146.25;100.00;52226.25;2079542;28;27932;-70
2023/08/07 03:18:43;;;;;;;15.68;8.48;;;;;;;-146.25;100.00;52216.13;2079749;28;20093;-70
2023/08/07 03:19:45;;;;;;;15.15;8.10;;;;;;;-146.25;100.00;52234.38;2079968;28;20050;-70
2023/08/07 03:20:49;;;;;;;13.50;7.82;;;;;;;-146.25;100.00;52218.16;2079505;28;20184;-70
2023/08/07 03:21:52;;;;;;;11.15;7.40;;;;;;;-146.25;100.00;52220.19;2079867;28;20045;-70
2023/08/07 03:22:54;;;;;;;13.25;7.60;;;;;;;-146.25;100.00;52201.94;2079686;28;21088;-70
2023/08/07 03:23:58;;;;;;;15.68;8.38;;;;;;;-146.25;100.00;52185.72;2079991;28;20894;-70
2023/08/07 03:25:00;;;;;;;13.18;7.55;;;;;;;-146.25;100.00;52185.72;2079871;28;20053;-69
2023/08/07 03:26:08;;;;;;;15.05;7.90;;;;;;;-146.25;100.00;52210.03;2079761;28;20144;-69
2023/08/07 03:27:19;;;;;;;16.33;7.82;;;;;;;-146.25;100.00;52218.16;2073613;28;20034;-69
2023/08/07 03:28:23;;;;;;;12.95;7.93;;;;;;;-146.25;100.00;52218.16;2079882;28;20046;-69
2023/08/07 03:29:27;;;;;;;11.98;7.22;;;;;;;-146.25;100.00;52206.00;2079659;28;20092;-69
2023/08/07 03:30:29;;;;;;;15.32;7.80;;;;;;;-146.25;100.00;52238.44;2080241;28;20156;-69
2023/08/07 03:31:31;;;;;;;13.00;7.10;;;;;;;-146.25;100.00;52222.22;2079472;28;20188;-68
2023/08/07 03:32:33;;;;;;;12.07;7.32;;;;;;;-146.25;100.00;52246.53;2079762;28;20041;-69
2023/08/07 03:33:35;;;;;;;11.18;7.25;;;;;;;-146.25;100.00;52195.84;2087722;28;20771;-69
2023/08/07 03:34:37;;;;;;;15.13;6.97;;;;;;;-146.25;100.00;52228.28;2087804;28;20034;-69
2023/08/07 03:35:40;;;;;;;11.10;7.07;;;;;;;-146.25;100.00;52206.00;2087614;28;20046;-69
2023/08/07 03:36:46;;;;;;;14.23;6.82;;;;;;;-146.25;100.00;52218.16;2080018;28;20042;-69
2023/08/07 03:37:48;;;;;;;13.10;6.90;;;;;;;-146.25;100.00;52212.06;2078845;28;20244;-69
2023/08/07 03:38:53;;;;;;;13.63;7.22;;;;;;;-146.25;100.00;52230.31;2071669;28;21008;-69
2023/08/07 03:39:55;;;;;;;12.82;6.00;;;;;;;-146.25;100.00;52270.88;2071594;28;27790;-69
2023/08/07 03:40:57;;;;;;;11.85;6.03;;;;;;;-146.25;100.00;52197.88;2079599;28;20056;-69
2023/08/07 03:42:03;;;;;;;8.80;5.78;;;;;;;-146.25;100.00;52214.09;2079553;28;20045;-68
2023/08/07 03:43:05;;;;;;;10.90;6.22;;;;;;;-146.25;100.00;52210.03;2079767;28;20046;-69
2023/08/07 03:44:10;;;;;;;10.07;5.97;;;;;;;-146.25;100.00;52222.22;2079473;28;20258;-69
2023/08/07 03:45:11;;;;;;;10.05;5.63;;;;;;;-146.25;100.00;52220.19;2079578;28;20042;-69
2023/08/07 03:46:13;;;;;;;9.48;4.95;;;;;;;-146.25;100.00;52206.00;2079192;28;33928;-69
2023/08/07 03:47:17;;;;;;;10.02;5.22;;;;;;;-146.25;100.00;52191.81;2071895;28;20133;-69
2023/08/07 03:48:19;;;;;;;8.25;5.28;;;;;;;-146.25;100.00;52234.38;2071643;28;20120;-69
2023/08/07 03:49:21;;;;;;;7.80;5.65;;;;;;;-146.25;100.00;52242.50;2071778;28;20168;-69
2023/08/07 03:50:23;;;;;;;14.23;5.57;;;;;;;-146.25;100.00;52224.25;2079733;28;20104;-69
2023/08/07 03:51:26;;;;;;;6.70;5.38;;;;;;;-146.25;100.00;52177.59;2080161;28;20476;-68
2023/08/07 03:52:31;;;;;;;11.25;5.72;;;;;;;-146.25;100.00;52230.31;2079557;28;20157;-69
2023/08/07 03:53:34;;;;;;;7.35;4.93;;;;;;;-146.25;100.00;52214.09;2079924;28;20127;-68
2023/08/07 03:54:35;;;;;;;8.80;4.85;;;;;;;-146.25;100.00;52246.53;2079677;28;21027;-68
2023/08/07 03:55:37;;;;;;;9.50;5.00;;;;;;;-146.25;100.00;52206.00;2080555;28;20046;-69
2023/08/07 03:56:40;;;;;;;9.32;5.30;;;;;;;-146.25;100.00;52234.38;2079547;28;20026;-68
2023/08/07 03:57:45;;;;;;;10.57;4.82;;;;;;;-146.25;100.00;52230.31;2079379;28;26465;-68
2023/08/07 03:58:49;;;;;;;7.53;4.45;;;;;;;-146.25;100.00;52230.31;2078861;28;20038;-67
2023/08/07 03:59:54;;;;;;;6.93;4.82;;;;;;;-146.25;100.00;52218.16;2079912;28;20046;-68
2023/08/07 04:00:58;;;;;;;9.18;4.65;;;;;;;-146.25;100.00;52232.34;2079253;28;20811;-68
2023/08/07 04:02:02;;;;;;;6.28;4.55;;;;;;;-146.25;100.00;52206.00;2079941;28;20149;-67
2023/08/07 04:03:04;;;;;;;11.23;4.60;;;;;;;-146.25;100.00;52214.09;2079356;28;20049;-68
2023/08/07 04:04:08;;;;;;;7.60;4.10;;;;;;;-146.25;100.00;52242.50;2071450;28;20057;-68
2023/08/07 04:05:10;;;;;;;4.72;3.72;;;;;;;-146.25;100.00;52238.44;2079469;28;20165;-68
2023/08/07 04:06:15;;;;;;;6.18;4.03;;;;;;;-146.25;100.00;52242.50;2087346;28;20875;-67
2023/08/07 04:07:17;;;;;;;8.55;3.60;;;;;;;-146.25;100.00;52208.03;2079580;28;31502;-68
2023/08/07 04:08:20;;;;;;;6.90;3.90;;;;;;;-146.25;100.00;52254.66;2079640;28;20164;-68
2023/08/07 04:09:24;;;;;;;5.85;3.22;;;;;;;-146.25;100.00;52236.41;2079355;28;20037;-68
2023/08/07 04:10:26;;;;;;;7.22;3.58;;;;;;;-146.25;100.00;52238.44;2079239;28;20057;-68
2023/08/07 04:11:33;;;;;;;7.10;3.20;;;;;;;-146.25;100.00;52250.59;2080567;28;20161;-72
2023/08/07 04:12:38;;;;;;;4.72;2.40;;;;;;;-146.25;100.00;52272.91;2079398;28;20026;-66
2023/08/07 04:13:39;;;;;;;3.03;2.53;;;;;;;-146.25;100.00;52236.41;2078975;28;31802;-65
2023/08/07 04:14:42;;;;;;;5.22;2.70;;;;;;;-146.25;100.00;52228.28;2079591;28;20820;-66
2023/08/07 04:15:44;;;;;;;5.22;2.85;;;;;;;-146.25;100.00;52262.75;2079391;28;27487;-66
2023/08/07 04:16:46;;;;;;;7.15;2.60;;;;;;;-146.25;100.00;52218.16;2079357;28;20053;-66
2023/08/07 04:17:48;;;;;;;4.88;2.58;;;;;;;-146.25;100.00;52242.50;2078877;28;31095;-66
2023/08/07 04:18:51;;;;;;;4.88;2.20;;;;;;;-146.25;100.00;52208.03;2079533;28;31910;-66
2023/08/07 04:19:53;;;;;;;5.05;2.38;;;;;;;-146.25;100.00;52238.44;2070946;28;20050;-66
2023/08/07 04:20:56;;;;;;;5.03;2.28;;;;;;;-146.25;100.00;52210.03;2071677;28;20934;-65
2023/08/07 04:21:58;;;;;;;2.60;2.08;;;;;;;-146.25;100.00;52258.72;2087345;28;24355;-66
2023/08/07 04:23:00;;;;;;;5.45;2.15;;;;;;;-146.25;100.00;52234.38;2087104;28;28479;-66
2023/08/07 04:24:07;;;;;;;4.25;2.15;;;;;;;-146.25;100.00;52210.03;2078554;28;35050;-66
2023/08/07 04:25:10;;;;;;;5.00;1.88;;;;;;;-146.25;100.00;52222.22;2079805;28;20890;-66
2023/08/07 04:26:11;;;;;;;2.70;1.83;;;;;;;-146.25;100.00;52252.63;2079097;28;28342;-66
2023/08/07 04:27:13;;;;;;;4.93;2.08;;;;;;;-146.25;100.00;52254.66;2078673;28;30328;-64
2023/08/07 04:28:16;;;;;;;3.28;1.85;;;;;;;-146.25;100.00;52248.56;2080347;28;20038;-66
2023/08/07 04:29:18;;;;;;;3.33;2.00;;;;;;;-146.25;100.00;52234.38;2078315;28;33293;-66
2023/08/07 04:30:20;;;;;;;3.20;1.75;;;;;;;-146.25;100.00;52218.16;2079289;28;27897;-65
2023/08/07 04:31:22;;;;;;;4.65;2.10;;;;;;;-146.25;100.00;52228.28;2079699;28;22234;-66
2023/08/07 04:32:24;;;;;;;5.43;1.83;;;;;;;-146.25;100.00;52214.09;2079353;28;36866;-66
2023/08/07 04:33:28;;;;;;;5.55;1.90;;;;;;;-146.25;100.00;52250.59;2079740;28;20168;-70
2023/08/07 04:34:30;;;;;;;2.85;1.60;;;;;;;-146.25;100.00;52252.63;2078685;28;32298;-70
2023/08/07 04:35:31;;;;;;;3.13;1.60;;;;;;;-146.25;100.00;52214.09;2078984;28;21021;-71
2023/08/07 04:36:33;;;;;;;2.80;1.73;;;;;;;-146.25;100.00;52218.16;2079679;28;32122;-70
2023/08/07 04:37:36;;;;;;;3.53;1.80;;;;;;;-146.25;100.00;52254.66;2079518;28;32453;-70
2023/08/07 04:38:38;;;;;;;3.25;1.70;;;;;;;-146.25;100.00;52218.16;2080453;28;20876;-70
2023/08/07 04:39:40;;;;;;;3.33;1.70;;;;;;;-146.25;100.00;52268.84;2079772;28;31830;-70
2023/08/07 04:40:49;;;;;;;3.40;1.80;;;;;;;-146.25;100.00;52246.53;2078922;28;31714;-70
2023/08/07 04:41:51;;;;;;;4.47;1.88;;;;;;;-146.25;100.00;52232.34;2080095;28;27224;-70
2023/08/07 04:42:53;;;;;;;4.57;1.80;;;;;;;-146.25;100.00;52246.53;2078395;28;37759;-71
2023/08/07 04:43:55;;;;;;;3.92;1.85;;;;;;;-146.25;100.00;52256.69;2078949;28;33398;-69
2023/08/07 04:44:58;;;;;;;2.67;1.60;;;;;;;-146.25;100.00;52248.56;2079845;28;20049;-70
2023/08/07 04:46:00;;;;;;;3.80;2.05;;;;;;;-146.25;100.00;52230.31;2078853;28;33602;-70